PWSweather.com
Personal Weather Stations
Station Observations
OAK1E
Piedmont Ave District, Oakland, CA 94611

Piedmont Ave DistrictOakland, CA 94611

Lat: 37.832205, Lon: -122.250229

Elevation: 176

Station Type: Davis Vantage Pro 2

http://www.mayacamaswx.com/Oakland1E/Oakland1E.htm

Latest ConditionsUpdated 4:14:59 PM PST Sunday, Nov 19, 2017
Currently Today's Max Today's Min Today's Average
Temperature 58.9°F14.9°C 60.4°F15.8°C 44.7°F7.1°C 50.9°F10.5°C
Dew Point 45.9°F7.7°C 49.1°F9.5°C 40.6°F4.8°C 44.1°F6.7°C
Winds Calm Calm 3.0 mph N4.8 kmh N - 0.4 mph 0.6 kmh
Wind Gusts -- 4.8 mph7.7 kmh - -
Humidity 62% 90% 61% 78%
Pressure 30.07 in1018.3 mb 30.18 in1022.0 mb 30.05 in1017.6 mb -
Hour Temp Dew Point Humidity Winds Wind Gusts Pressure Precip Precip Rate Daily Precip Total
04:14 PM 58.9°F14.9°C 45.9°F7.7°C 62% Calm Calm -- 30.07 in1018.3 mb 0.00 in0.0 mm 0.00 in0.0 mm 0.00 in0.0 mm
04:09 PM 59.1°F15.1°C 46.1°F7.8°C 62% Calm Calm 1.2 mph1.9 kmh 30.07 in1018.3 mb 0.00 in0.0 mm 0.00 in0.0 mm 0.00 in0.0 mm
04:04 PM 59.3°F15.2°C 46.3°F7.9°C 62% 1.0 mph NNW1.6 kmh NNW 1.2 mph1.9 kmh 30.06 in1017.9 mb 0.00 in0.0 mm 0.00 in0.0 mm 0.00 in0.0 mm
03:59 PM 59.3°F15.2°C 46.3°F7.9°C 62% Calm Calm -- 30.06 in1017.9 mb 0.00 in0.0 mm 0.00 in0.0 mm 0.00 in0.0 mm
03:54 PM 59.5°F15.3°C 46.9°F8.3°C 63% Calm Calm 2.4 mph3.9 kmh 30.06 in1017.9 mb 0.00 in0.0 mm 0.00 in0.0 mm 0.00 in0.0 mm
03:49 PM 59.5°F15.3°C 46.5°F8.1°C 62% 1.0 mph N1.6 kmh N 4.8 mph7.7 kmh 30.06 in1017.9 mb 0.00 in0.0 mm 0.00 in0.0 mm 0.00 in0.0 mm
03:44 PM 59.7°F15.4°C 47.1°F8.4°C 63% 1.0 mph N1.6 kmh N 4.8 mph7.7 kmh 30.05 in1017.6 mb 0.00 in0.0 mm 0.00 in0.0 mm 0.00 in0.0 mm
03:39 PM 59.8°F15.4°C 46.8°F8.2°C 62% 1.0 mph NNW1.6 kmh NNW 4.8 mph7.7 kmh 30.05 in1017.6 mb 0.00 in0.0 mm 0.00 in0.0 mm 0.00 in0.0 mm
03:34 PM 59.9°F15.5°C 46.4°F8.0°C 61% Calm Calm 4.8 mph7.7 kmh 30.05 in1017.6 mb 0.00 in0.0 mm 0.00 in0.0 mm 0.00 in0.0 mm
03:29 PM 60.1°F15.6°C 46.6°F8.1°C 61% 1.0 mph NE1.6 kmh NE 2.4 mph3.9 kmh 30.05 in1017.6 mb 0.00 in0.0 mm 0.00 in0.0 mm 0.00 in0.0 mm
03:24 PM 60.2°F15.7°C 46.7°F8.2°C 61% Calm Calm 2.4 mph3.9 kmh 30.05 in1017.6 mb 0.00 in0.0 mm 0.00 in0.0 mm 0.00 in0.0 mm
03:19 PM 60.2°F15.7°C 47.1°F8.4°C 62% Calm Calm 2.4 mph3.9 kmh 30.05 in1017.6 mb 0.00 in0.0 mm 0.00 in0.0 mm 0.00 in0.0 mm
03:14 PM 60.3°F15.7°C 46.8°F8.2°C 61% Calm Calm 3.6 mph5.8 kmh 30.05 in1017.6 mb 0.00 in0.0 mm 0.00 in0.0 mm 0.00 in0.0 mm
03:09 PM 60.3°F15.7°C 47.6°F8.7°C 63% Calm Calm 2.4 mph3.9 kmh 30.05 in1017.6 mb 0.00 in0.0 mm 0.00 in0.0 mm 0.00 in0.0 mm
03:04 PM 60.4°F15.8°C 47.3°F8.5°C 62% 1.0 mph E1.6 kmh E 2.4 mph3.9 kmh 30.05 in1017.6 mb 0.00 in0.0 mm 0.00 in0.0 mm 0.00 in0.0 mm
02:59 PM 60.4°F15.8°C 46.9°F8.3°C 61% Calm Calm 3.6 mph5.8 kmh 30.05 in1017.6 mb 0.00 in0.0 mm 0.00 in0.0 mm 0.00 in0.0 mm
02:54 PM 60.3°F15.7°C 47.2°F8.4°C 62% 2.0 mph NNW3.2 kmh NNW 3.6 mph5.8 kmh 30.05 in1017.6 mb 0.00 in0.0 mm 0.00 in0.0 mm 0.00 in0.0 mm
02:49 PM 60.3°F15.7°C 48.1°F8.9°C 64% Calm Calm 3.6 mph5.8 kmh 30.05 in1017.6 mb 0.00 in0.0 mm 0.00 in0.0 mm 0.00 in0.0 mm
02:44 PM 60.2°F15.7°C 48.0°F8.9°C 64% Calm Calm 3.6 mph5.8 kmh 30.05 in1017.6 mb 0.00 in0.0 mm 0.00 in0.0 mm 0.00 in0.0 mm
02:39 PM 60.1°F15.6°C 47.5°F8.6°C 63% Calm Calm 3.6 mph5.8 kmh 30.05 in1017.6 mb 0.00 in0.0 mm 0.00 in0.0 mm 0.00 in0.0 mm
02:34 PM 60.0°F15.6°C 46.5°F8.1°C 61% 1.0 mph NNW1.6 kmh NNW 3.6 mph5.8 kmh 30.05 in1017.6 mb 0.00 in0.0 mm 0.00 in0.0 mm 0.00 in0.0 mm
02:29 PM 60.0°F15.6°C 46.9°F8.3°C 62% 1.0 mph N1.6 kmh N 3.6 mph5.8 kmh 30.06 in1017.9 mb 0.00 in0.0 mm 0.00 in0.0 mm 0.00 in0.0 mm
02:24 PM 59.9°F15.5°C 47.3°F8.5°C 63% 2.0 mph 3.2 kmh 3.6 mph5.8 kmh 30.06 in1017.9 mb 0.00 in0.0 mm 0.00 in0.0 mm 0.00 in0.0 mm
02:19 PM 59.8°F15.4°C 47.2°F8.4°C 63% 1.0 mph N1.6 kmh N 3.6 mph5.8 kmh 30.07 in1018.3 mb 0.00 in0.0 mm 0.00 in0.0 mm 0.00 in0.0 mm
02:14 PM 59.8°F15.4°C 46.8°F8.2°C 62% 1.0 mph NNW1.6 kmh NNW 4.8 mph7.7 kmh 30.07 in1018.3 mb 0.00 in0.0 mm 0.00 in0.0 mm 0.00 in0.0 mm
02:09 PM 59.7°F15.4°C 48.3°F9.1°C 66% 1.0 mph 1.6 kmh 4.8 mph7.7 kmh 30.07 in1018.3 mb 0.00 in0.0 mm 0.00 in0.0 mm 0.00 in0.0 mm
02:04 PM 59.6°F15.3°C 47.4°F8.6°C 64% 1.0 mph 1.6 kmh 4.8 mph7.7 kmh 30.07 in1018.3 mb 0.00 in0.0 mm 0.00 in0.0 mm 0.00 in0.0 mm
01:59 PM 59.5°F15.3°C 47.7°F8.7°C 65% Calm Calm 4.8 mph7.7 kmh 30.07 in1018.3 mb 0.00 in0.0 mm 0.00 in0.0 mm 0.00 in0.0 mm
01:54 PM 59.3°F15.2°C 47.5°F8.6°C 65% 1.0 mph N1.6 kmh N 3.6 mph5.8 kmh 30.07 in1018.3 mb 0.00 in0.0 mm 0.00 in0.0 mm 0.00 in0.0 mm
01:49 PM 59.3°F15.2°C 47.5°F8.6°C 65% 1.0 mph NNW1.6 kmh NNW 2.4 mph3.9 kmh 30.07 in1018.3 mb 0.00 in0.0 mm 0.00 in0.0 mm 0.00 in0.0 mm
01:44 PM 59.2°F15.1°C 48.2°F9.0°C 67% Calm Calm 4.8 mph7.7 kmh 30.07 in1018.3 mb 0.00 in0.0 mm 0.00 in0.0 mm 0.00 in0.0 mm
01:39 PM 59.3°F15.2°C 47.5°F8.6°C 65% Calm Calm 4.8 mph7.7 kmh 30.07 in1018.3 mb 0.00 in0.0 mm 0.00 in0.0 mm 0.00 in0.0 mm
01:34 PM 59.4°F15.2°C 48.4°F9.1°C 67% 1.0 mph N1.6 kmh N 4.8 mph7.7 kmh 30.07 in1018.3 mb 0.00 in0.0 mm 0.00 in0.0 mm 0.00 in0.0 mm
01:29 PM 59.3°F15.2°C 47.9°F8.8°C 66% 1.0 mph N1.6 kmh N 4.8 mph7.7 kmh 30.07 in1018.3 mb 0.00 in0.0 mm 0.00 in0.0 mm 0.00 in0.0 mm
01:24 PM 59.4°F15.2°C 48.0°F8.9°C 66% 1.0 mph WNW1.6 kmh WNW 2.4 mph3.9 kmh 30.07 in1018.3 mb 0.00 in0.0 mm 0.00 in0.0 mm 0.00 in0.0 mm
01:17 PM 59.5°F15.3°C 48.5°F9.2°C 67% 1.0 mph ESE1.6 kmh ESE 3.6 mph5.8 kmh 30.08 in1018.6 mb 0.00 in0.0 mm 0.00 in0.0 mm 0.00 in0.0 mm
01:12 PM 59.5°F15.3°C 48.9°F9.4°C 68% Calm Calm 4.8 mph7.7 kmh 30.07 in1018.3 mb 0.00 in0.0 mm 0.00 in0.0 mm 0.00 in0.0 mm
01:07 PM 59.4°F15.2°C 48.4°F9.1°C 67% 1.0 mph N1.6 kmh N 4.8 mph7.7 kmh 30.08 in1018.6 mb 0.00 in0.0 mm 0.00 in0.0 mm 0.00 in0.0 mm
01:02 PM 59.4°F15.2°C 48.4°F9.1°C 67% 1.0 mph N1.6 kmh N 4.8 mph7.7 kmh 30.07 in1018.3 mb 0.00 in0.0 mm 0.00 in0.0 mm 0.00 in0.0 mm
12:57 PM 59.4°F15.2°C 48.8°F9.3°C 68% Calm Calm 4.8 mph7.7 kmh 30.08 in1018.6 mb 0.00 in0.0 mm 0.00 in0.0 mm 0.00 in0.0 mm
12:52 PM 59.3°F15.2°C 48.3°F9.1°C 67% Calm Calm 4.8 mph7.7 kmh 30.07 in1018.3 mb 0.00 in0.0 mm 0.00 in0.0 mm 0.00 in0.0 mm
12:47 PM 59.2°F15.1°C 48.6°F9.2°C 68% 3.0 mph N4.8 kmh N 4.8 mph7.7 kmh 30.08 in1018.6 mb 0.00 in0.0 mm 0.00 in0.0 mm 0.00 in0.0 mm
12:42 PM 58.9°F14.9°C 49.1°F9.5°C 70% 1.0 mph NNW1.6 kmh NNW 4.8 mph7.7 kmh 30.07 in1018.3 mb 0.00 in0.0 mm 0.00 in0.0 mm 0.00 in0.0 mm
12:37 PM 58.6°F14.8°C 48.8°F9.3°C 70% Calm Calm 4.8 mph7.7 kmh 30.07 in1018.3 mb 0.00 in0.0 mm 0.00 in0.0 mm 0.00 in0.0 mm
12:32 PM 58.4°F14.7°C 48.3°F9.1°C 69% Calm Calm 3.6 mph5.8 kmh 30.08 in1018.6 mb 0.00 in0.0 mm 0.00 in0.0 mm 0.00 in0.0 mm
12:27 PM 58.3°F14.6°C 48.2°F9.0°C 69% Calm Calm 2.4 mph3.9 kmh 30.08 in1018.6 mb 0.00 in0.0 mm 0.00 in0.0 mm 0.00 in0.0 mm
12:22 PM 58.1°F14.5°C 48.7°F9.3°C 71% 1.0 mph E1.6 kmh E 2.4 mph3.9 kmh 30.08 in1018.6 mb 0.00 in0.0 mm 0.00 in0.0 mm 0.00 in0.0 mm
12:17 PM 58.0°F14.4°C 48.3°F9.1°C 70% 1.0 mph SE1.6 kmh SE 2.4 mph3.9 kmh 30.09 in1019.0 mb 0.00 in0.0 mm 0.00 in0.0 mm 0.00 in0.0 mm
12:12 PM 57.8°F14.3°C 47.7°F8.7°C 69% Calm Calm 2.4 mph3.9 kmh 30.09 in1019.0 mb 0.00 in0.0 mm 0.00 in0.0 mm 0.00 in0.0 mm
12:07 PM 57.6°F14.2°C 48.3°F9.1°C 71% 1.0 mph SE1.6 kmh SE 2.4 mph3.9 kmh 30.10 in1019.3 mb 0.00 in0.0 mm 0.00 in0.0 mm 0.00 in0.0 mm
12:02 PM 57.2°F14.0°C 47.9°F8.8°C 71% Calm Calm 2.4 mph3.9 kmh 30.11 in1019.6 mb 0.00 in0.0 mm 0.00 in0.0 mm 0.00 in0.0 mm
11:57 AM 56.9°F13.8°C 47.6°F8.7°C 71% 1.0 mph NNW1.6 kmh NNW 2.4 mph3.9 kmh 30.11 in1019.6 mb 0.00 in0.0 mm 0.00 in0.0 mm 0.00 in0.0 mm
11:52 AM 56.7°F13.7°C 48.1°F8.9°C 73% Calm Calm -- 30.11 in1019.6 mb 0.00 in0.0 mm 0.00 in0.0 mm 0.00 in0.0 mm
11:47 AM 56.5°F13.6°C 47.6°F8.7°C 72% Calm Calm 3.6 mph5.8 kmh 30.11 in1019.6 mb 0.00 in0.0 mm 0.00 in0.0 mm 0.00 in0.0 mm
11:42 AM 56.2°F13.4°C 47.3°F8.5°C 72% Calm Calm 3.6 mph5.8 kmh 30.12 in1020.0 mb 0.00 in0.0 mm 0.00 in0.0 mm 0.00 in0.0 mm
11:37 AM 56.1°F13.4°C 47.6°F8.7°C 73% 2.0 mph S3.2 kmh S 3.6 mph5.8 kmh 30.12 in1020.0 mb 0.00 in0.0 mm 0.00 in0.0 mm 0.00 in0.0 mm
11:32 AM 55.9°F13.3°C 47.7°F8.7°C 74% 1.0 mph SSW1.6 kmh SSW 3.6 mph5.8 kmh 30.12 in1020.0 mb 0.00 in0.0 mm 0.00 in0.0 mm 0.00 in0.0 mm
11:27 AM 55.6°F13.1°C 47.4°F8.6°C 74% Calm Calm 3.6 mph5.8 kmh 30.12 in1020.0 mb 0.00 in0.0 mm 0.00 in0.0 mm 0.00 in0.0 mm
11:22 AM 55.4°F13.0°C 47.3°F8.5°C 74% Calm Calm 3.6 mph5.8 kmh 30.12 in1020.0 mb 0.00 in0.0 mm 0.00 in0.0 mm 0.00 in0.0 mm
11:17 AM 55.3°F12.9°C 47.5°F8.6°C 75% 1.0 mph WSW1.6 kmh WSW 2.4 mph3.9 kmh 30.12 in1020.0 mb 0.00 in0.0 mm 0.00 in0.0 mm 0.00 in0.0 mm
11:12 AM 55.1°F12.8°C 47.0°F8.3°C 74% Calm Calm 3.6 mph5.8 kmh 30.12 in1020.0 mb 0.00 in0.0 mm 0.00 in0.0 mm 0.00 in0.0 mm
11:07 AM 55.0°F12.8°C 47.2°F8.4°C 75% 1.0 mph WSW1.6 kmh WSW 2.4 mph3.9 kmh 30.13 in1020.3 mb 0.00 in0.0 mm 0.00 in0.0 mm 0.00 in0.0 mm
11:02 AM 54.9°F12.7°C 47.1°F8.4°C 75% Calm Calm 2.4 mph3.9 kmh 30.13 in1020.3 mb 0.00 in0.0 mm 0.00 in0.0 mm 0.00 in0.0 mm
10:57 AM 54.7°F12.6°C 47.3°F8.5°C 76% 1.0 mph WSW1.6 kmh WSW 2.4 mph3.9 kmh 30.13 in1020.3 mb 0.00 in0.0 mm 0.00 in0.0 mm 0.00 in0.0 mm
10:52 AM 54.4°F12.4°C 47.0°F8.3°C 76% Calm Calm 1.2 mph1.9 kmh 30.13 in1020.3 mb 0.00 in0.0 mm 0.00 in0.0 mm 0.00 in0.0 mm
10:47 AM 54.3°F12.4°C 46.9°F8.3°C 76% 1.0 mph WSW1.6 kmh WSW 3.6 mph5.8 kmh 30.14 in1020.7 mb 0.00 in0.0 mm 0.00 in0.0 mm 0.00 in0.0 mm
10:42 AM 54.1°F12.3°C 46.7°F8.2°C 76% Calm Calm 3.6 mph5.8 kmh 30.14 in1020.7 mb 0.00 in0.0 mm 0.00 in0.0 mm 0.00 in0.0 mm
10:37 AM 53.9°F12.2°C 46.5°F8.1°C 76% 1.0 mph NNW1.6 kmh NNW 3.6 mph5.8 kmh 30.14 in1020.7 mb 0.00 in0.0 mm 0.00 in0.0 mm 0.00 in0.0 mm
10:32 AM 53.7°F12.1°C 46.7°F8.2°C 77% 1.0 mph NNW1.6 kmh NNW 3.6 mph5.8 kmh 30.13 in1020.3 mb 0.00 in0.0 mm 0.00 in0.0 mm 0.00 in0.0 mm
10:27 AM 53.3°F11.8°C 45.9°F7.7°C 76% Calm Calm 1.2 mph1.9 kmh 30.13 in1020.3 mb 0.00 in0.0 mm 0.00 in0.0 mm 0.00 in0.0 mm
10:22 AM 53.1°F11.7°C 46.4°F8.0°C 78% Calm Calm 1.2 mph1.9 kmh 30.14 in1020.7 mb 0.00 in0.0 mm 0.00 in0.0 mm 0.00 in0.0 mm
10:17 AM 52.9°F11.6°C 46.2°F7.9°C 78% Calm Calm 2.4 mph3.9 kmh 30.14 in1020.7 mb 0.00 in0.0 mm 0.00 in0.0 mm 0.00 in0.0 mm
10:12 AM 52.7°F11.5°C 46.0°F7.8°C 78% Calm Calm 2.4 mph3.9 kmh 30.14 in1020.7 mb 0.00 in0.0 mm 0.00 in0.0 mm 0.00 in0.0 mm
10:07 AM 52.4°F11.3°C 45.7°F7.6°C 78% Calm Calm 1.2 mph1.9 kmh 30.14 in1020.7 mb 0.00 in0.0 mm 0.00 in0.0 mm 0.00 in0.0 mm
10:02 AM 52.2°F11.2°C 45.9°F7.7°C 79% Calm Calm 2.4 mph3.9 kmh 30.14 in1020.7 mb 0.00 in0.0 mm 0.00 in0.0 mm 0.00 in0.0 mm
09:57 AM 51.9°F11.1°C 45.6°F7.6°C 79% Calm Calm 1.2 mph1.9 kmh 30.14 in1020.7 mb 0.00 in0.0 mm 0.00 in0.0 mm 0.00 in0.0 mm
09:52 AM 51.5°F10.8°C 45.5°F7.5°C 80% Calm Calm 2.4 mph3.9 kmh 30.14 in1020.7 mb 0.00 in0.0 mm 0.00 in0.0 mm 0.00 in0.0 mm
09:47 AM 51.1°F10.6°C 45.8°F7.7°C 82% Calm Calm 2.4 mph3.9 kmh 30.14 in1020.7 mb 0.00 in0.0 mm 0.00 in0.0 mm 0.00 in0.0 mm
09:42 AM 50.6°F10.3°C 45.6°F7.6°C 83% Calm Calm 1.2 mph1.9 kmh 30.15 in1021.0 mb 0.00 in0.0 mm 0.00 in0.0 mm 0.00 in0.0 mm
09:37 AM 50.2°F10.1°C 45.6°F7.6°C 84% Calm Calm 1.2 mph1.9 kmh 30.15 in1021.0 mb 0.00 in0.0 mm 0.00 in0.0 mm 0.00 in0.0 mm
09:32 AM 49.9°F9.9°C 45.6°F7.6°C 85% Calm Calm 1.2 mph1.9 kmh 30.15 in1021.0 mb 0.00 in0.0 mm 0.00 in0.0 mm 0.00 in0.0 mm
09:27 AM 49.6°F9.8°C 45.3°F7.4°C 85% Calm Calm 1.2 mph1.9 kmh 30.15 in1021.0 mb 0.00 in0.0 mm 0.00 in0.0 mm 0.00 in0.0 mm
09:22 AM 49.4°F9.7°C 45.1°F7.3°C 85% Calm Calm -- 30.14 in1020.7 mb 0.00 in0.0 mm 0.00 in0.0 mm 0.00 in0.0 mm
09:17 AM 49.2°F9.6°C 44.9°F7.2°C 85% Calm Calm -- 30.15 in1021.0 mb 0.00 in0.0 mm 0.00 in0.0 mm 0.00 in0.0 mm
09:12 AM 49.1°F9.5°C 45.1°F7.3°C 86% Calm Calm 1.2 mph1.9 kmh 30.16 in1021.3 mb 0.00 in0.0 mm 0.00 in0.0 mm 0.00 in0.0 mm
09:07 AM 48.9°F9.4°C 44.9°F7.2°C 86% Calm Calm -- 30.16 in1021.3 mb 0.00 in0.0 mm 0.00 in0.0 mm 0.00 in0.0 mm
09:02 AM 48.6°F9.2°C 44.9°F7.2°C 87% Calm Calm -- 30.15 in1021.0 mb 0.00 in0.0 mm 0.00 in0.0 mm 0.00 in0.0 mm
08:57 AM 48.3°F9.1°C 44.9°F7.2°C 88% 1.0 mph W1.6 kmh W 1.2 mph1.9 kmh 30.15 in1021.0 mb 0.00 in0.0 mm 0.00 in0.0 mm 0.00 in0.0 mm
08:52 AM 47.9°F8.8°C 44.5°F6.9°C 88% Calm Calm -- 30.15 in1021.0 mb 0.00 in0.0 mm 0.00 in0.0 mm 0.00 in0.0 mm
08:47 AM 47.5°F8.6°C 44.4°F6.9°C 89% Calm Calm 1.2 mph1.9 kmh 30.15 in1021.0 mb 0.00 in0.0 mm 0.00 in0.0 mm 0.00 in0.0 mm
08:42 AM 47.1°F8.4°C 44.0°F6.7°C 89% Calm Calm -- 30.15 in1021.0 mb 0.00 in0.0 mm 0.00 in0.0 mm 0.00 in0.0 mm
08:37 AM 46.9°F8.3°C 43.8°F6.6°C 89% Calm Calm -- 30.15 in1021.0 mb 0.00 in0.0 mm 0.00 in0.0 mm 0.00 in0.0 mm
08:32 AM 46.6°F8.1°C 43.5°F6.4°C 89% Calm Calm 1.2 mph1.9 kmh 30.15 in1021.0 mb 0.00 in0.0 mm 0.00 in0.0 mm 0.00 in0.0 mm
08:27 AM 46.3°F7.9°C 43.5°F6.4°C 90% Calm Calm -- 30.15 in1021.0 mb 0.00 in0.0 mm 0.00 in0.0 mm 0.00 in0.0 mm
08:22 AM 46.1°F7.8°C 43.3°F6.3°C 90% Calm Calm -- 30.16 in1021.3 mb 0.00 in0.0 mm 0.00 in0.0 mm 0.00 in0.0 mm
08:17 AM 45.8°F7.7°C 43.0°F6.1°C 90% Calm Calm -- 30.16 in1021.3 mb 0.00 in0.0 mm 0.00 in0.0 mm 0.00 in0.0 mm
08:12 AM 45.6°F7.6°C 42.8°F6.0°C 90% Calm Calm -- 30.16 in1021.3 mb 0.00 in0.0 mm 0.00 in0.0 mm 0.00 in0.0 mm
08:07 AM 45.6°F7.6°C 42.5°F5.8°C 89% Calm Calm -- 30.15 in1021.0 mb 0.00 in0.0 mm 0.00 in0.0 mm 0.00 in0.0 mm
08:02 AM 45.6°F7.6°C 42.5°F5.8°C 89% Calm Calm -- 30.15 in1021.0 mb 0.00 in0.0 mm 0.00 in0.0 mm 0.00 in0.0 mm
07:57 AM 45.6°F7.6°C 42.5°F5.8°C 89% Calm Calm -- 30.16 in1021.3 mb 0.00 in0.0 mm 0.00 in0.0 mm 0.00 in0.0 mm
07:52 AM 45.6°F7.6°C 42.5°F5.8°C 89% Calm Calm -- 30.16 in1021.3 mb 0.00 in0.0 mm 0.00 in0.0 mm 0.00 in0.0 mm
07:47 AM 45.6°F7.6°C 42.5°F5.8°C 89% Calm Calm -- 30.16 in1021.3 mb 0.00 in0.0 mm 0.00 in0.0 mm 0.00 in0.0 mm
07:42 AM 45.5°F7.5°C 42.4°F5.8°C 89% Calm Calm -- 30.16 in1021.3 mb 0.00 in0.0 mm 0.00 in0.0 mm 0.00 in0.0 mm
07:37 AM 45.5°F7.5°C 42.4°F5.8°C 89% Calm Calm 1.2 mph1.9 kmh 30.16 in1021.3 mb 0.00 in0.0 mm 0.00 in0.0 mm 0.00 in0.0 mm
07:32 AM 45.5°F7.5°C 42.2°F5.7°C 88% Calm Calm -- 30.15 in1021.0 mb 0.00 in0.0 mm 0.00 in0.0 mm 0.00 in0.0 mm
07:27 AM 45.5°F7.5°C 42.2°F5.7°C 88% Calm Calm -- 30.15 in1021.0 mb 0.00 in0.0 mm 0.00 in0.0 mm 0.00 in0.0 mm
07:22 AM 45.6°F7.6°C 42.3°F5.7°C 88% Calm Calm -- 30.15 in1021.0 mb 0.00 in0.0 mm 0.00 in0.0 mm 0.00 in0.0 mm
07:17 AM 45.6°F7.6°C 42.3°F5.7°C 88% Calm Calm 1.2 mph1.9 kmh 30.15 in1021.0 mb 0.00 in0.0 mm 0.00 in0.0 mm 0.00 in0.0 mm
07:12 AM 45.5°F7.5°C 42.2°F5.7°C 88% Calm Calm -- 30.15 in1021.0 mb 0.00 in0.0 mm 0.00 in0.0 mm 0.00 in0.0 mm
07:07 AM 45.5°F7.5°C 42.2°F5.7°C 88% Calm Calm -- 30.14 in1020.7 mb 0.00 in0.0 mm 0.00 in0.0 mm 0.00 in0.0 mm
07:02 AM 45.6°F7.6°C 42.3°F5.7°C 88% Calm Calm -- 30.14 in1020.7 mb 0.00 in0.0 mm 0.00 in0.0 mm 0.00 in0.0 mm
06:57 AM 45.6°F7.6°C 42.0°F5.6°C 87% Calm Calm 1.2 mph1.9 kmh 30.13 in1020.3 mb 0.00 in0.0 mm 0.00 in0.0 mm 0.00 in0.0 mm
06:52 AM 45.5°F7.5°C 41.9°F5.5°C 87% Calm Calm 1.2 mph1.9 kmh 30.13 in1020.3 mb 0.00 in0.0 mm 0.00 in0.0 mm 0.00 in0.0 mm
06:47 AM 45.5°F7.5°C 41.9°F5.5°C 87% Calm Calm 1.2 mph1.9 kmh 30.14 in1020.7 mb 0.00 in0.0 mm 0.00 in0.0 mm 0.00 in0.0 mm
06:42 AM 45.5°F7.5°C 41.9°F5.5°C 87% Calm Calm -- 30.13 in1020.3 mb 0.00 in0.0 mm 0.00 in0.0 mm 0.00 in0.0 mm
06:37 AM 45.5°F7.5°C 41.9°F5.5°C 87% 1.0 mph W1.6 kmh W 1.2 mph1.9 kmh 30.13 in1020.3 mb 0.00 in0.0 mm 0.00 in0.0 mm 0.00 in0.0 mm
06:32 AM 45.5°F7.5°C 42.2°F5.7°C 88% Calm Calm 1.2 mph1.9 kmh 30.14 in1020.7 mb 0.00 in0.0 mm 0.00 in0.0 mm 0.00 in0.0 mm
06:27 AM 45.3°F7.4°C 41.7°F5.4°C 87% Calm Calm 1.2 mph1.9 kmh 30.14 in1020.7 mb 0.00 in0.0 mm 0.00 in0.0 mm 0.00 in0.0 mm
06:22 AM 45.2°F7.3°C 41.6°F5.3°C 87% Calm Calm -- 30.14 in1020.7 mb 0.00 in0.0 mm 0.00 in0.0 mm 0.00 in0.0 mm
06:17 AM 45.2°F7.3°C 41.6°F5.3°C 87% Calm Calm -- 30.14 in1020.7 mb 0.00 in0.0 mm 0.00 in0.0 mm 0.00 in0.0 mm
06:12 AM 45.1°F7.3°C 41.8°F5.4°C 88% 1.0 mph W1.6 kmh W 1.2 mph1.9 kmh 30.14 in1020.7 mb 0.00 in0.0 mm 0.00 in0.0 mm 0.00 in0.0 mm
06:07 AM 44.8°F7.1°C 41.5°F5.3°C 88% Calm Calm 1.2 mph1.9 kmh 30.14 in1020.7 mb 0.00 in0.0 mm 0.00 in0.0 mm 0.00 in0.0 mm
06:02 AM 44.7°F7.1°C 41.4°F5.2°C 88% Calm Calm 1.2 mph1.9 kmh 30.14 in1020.7 mb 0.00 in0.0 mm 0.00 in0.0 mm 0.00 in0.0 mm
05:57 AM 44.7°F7.1°C 41.4°F5.2°C 88% Calm Calm -- 30.14 in1020.7 mb 0.00 in0.0 mm 0.00 in0.0 mm 0.00 in0.0 mm
05:52 AM 44.8°F7.1°C 41.2°F5.1°C 87% Calm Calm -- 30.13 in1020.3 mb 0.00 in0.0 mm 0.00 in0.0 mm 0.00 in0.0 mm
05:47 AM 44.9°F7.2°C 41.6°F5.3°C 88% Calm Calm -- 30.14 in1020.7 mb 0.00 in0.0 mm 0.00 in0.0 mm 0.00 in0.0 mm
05:42 AM 45.0°F7.2°C 41.4°F5.2°C 87% Calm Calm 1.2 mph1.9 kmh 30.14 in1020.7 mb 0.00 in0.0 mm 0.00 in0.0 mm 0.00 in0.0 mm
05:37 AM 45.0°F7.2°C 41.4°F5.2°C 87% 1.0 mph W1.6 kmh W 1.2 mph1.9 kmh 30.14 in1020.7 mb 0.00 in0.0 mm 0.00 in0.0 mm 0.00 in0.0 mm
05:32 AM 45.1°F7.3°C 41.2°F5.1°C 86% Calm Calm -- 30.14 in1020.7 mb 0.00 in0.0 mm 0.00 in0.0 mm 0.00 in0.0 mm
05:27 AM 45.2°F7.3°C 41.3°F5.2°C 86% Calm Calm -- 30.14 in1020.7 mb 0.00 in0.0 mm 0.00 in0.0 mm 0.00 in0.0 mm
05:22 AM 45.4°F7.4°C 41.8°F5.4°C 87% Calm Calm 2.4 mph3.9 kmh 30.14 in1020.7 mb 0.00 in0.0 mm 0.00 in0.0 mm 0.00 in0.0 mm
05:17 AM 45.6°F7.6°C 41.7°F5.4°C 86% 1.0 mph W1.6 kmh W 1.2 mph1.9 kmh 30.15 in1021.0 mb 0.00 in0.0 mm 0.00 in0.0 mm 0.00 in0.0 mm
05:12 AM 45.7°F7.6°C 41.5°F5.3°C 85% Calm Calm -- 30.15 in1021.0 mb 0.00 in0.0 mm 0.00 in0.0 mm 0.00 in0.0 mm
05:07 AM 45.8°F7.7°C 41.9°F5.5°C 86% Calm Calm -- 30.15 in1021.0 mb 0.00 in0.0 mm 0.00 in0.0 mm 0.00 in0.0 mm
05:02 AM 45.9°F7.7°C 42.0°F5.6°C 86% Calm Calm -- 30.14 in1020.7 mb 0.00 in0.0 mm 0.00 in0.0 mm 0.00 in0.0 mm
04:57 AM 45.9°F7.7°C 42.0°F5.6°C 86% 1.0 mph W1.6 kmh W 2.4 mph3.9 kmh 30.14 in1020.7 mb 0.00 in0.0 mm 0.00 in0.0 mm 0.00 in0.0 mm
04:52 AM 46.0°F7.8°C 41.7°F5.4°C 85% Calm Calm 1.2 mph1.9 kmh 30.14 in1020.7 mb 0.00 in0.0 mm 0.00 in0.0 mm 0.00 in0.0 mm
04:47 AM 46.0°F7.8°C 41.7°F5.4°C 85% Calm Calm -- 30.14 in1020.7 mb 0.00 in0.0 mm 0.00 in0.0 mm 0.00 in0.0 mm
04:42 AM 46.1°F7.8°C 41.8°F5.4°C 85% Calm Calm -- 30.14 in1020.7 mb 0.00 in0.0 mm 0.00 in0.0 mm 0.00 in0.0 mm
04:37 AM 46.2°F7.9°C 41.9°F5.5°C 85% Calm Calm -- 30.14 in1020.7 mb 0.00 in0.0 mm 0.00 in0.0 mm 0.00 in0.0 mm
04:32 AM 46.1°F7.8°C 41.8°F5.4°C 85% 1.0 mph W1.6 kmh W 2.4 mph3.9 kmh 30.14 in1020.7 mb 0.00 in0.0 mm 0.00 in0.0 mm 0.00 in0.0 mm
04:27 AM 46.0°F7.8°C 41.7°F5.4°C 85% 1.0 mph W1.6 kmh W 2.4 mph3.9 kmh 30.14 in1020.7 mb 0.00 in0.0 mm 0.00 in0.0 mm 0.00 in0.0 mm
04:22 AM 45.8°F7.7°C 41.6°F5.3°C 85% Calm Calm 1.2 mph1.9 kmh 30.14 in1020.7 mb 0.00 in0.0 mm 0.00 in0.0 mm 0.00 in0.0 mm
04:17 AM 45.7°F7.6°C 41.5°F5.3°C 85% Calm Calm 1.2 mph1.9 kmh 30.15 in1021.0 mb 0.00 in0.0 mm 0.00 in0.0 mm 0.00 in0.0 mm
04:12 AM 45.6°F7.6°C 41.0°F5.0°C 84% Calm Calm 2.4 mph3.9 kmh 30.15 in1021.0 mb 0.00 in0.0 mm 0.00 in0.0 mm 0.00 in0.0 mm
04:07 AM 45.7°F7.6°C 41.1°F5.1°C 84% 1.0 mph W1.6 kmh W 2.4 mph3.9 kmh 30.15 in1021.0 mb 0.00 in0.0 mm 0.00 in0.0 mm 0.00 in0.0 mm
04:02 AM 45.8°F7.7°C 41.2°F5.1°C 84% 1.0 mph W1.6 kmh W 2.4 mph3.9 kmh 30.16 in1021.3 mb 0.00 in0.0 mm 0.00 in0.0 mm 0.00 in0.0 mm
03:57 AM 45.9°F7.7°C 41.3°F5.2°C 84% Calm Calm 1.2 mph1.9 kmh 30.16 in1021.3 mb 0.00 in0.0 mm 0.00 in0.0 mm 0.00 in0.0 mm
03:52 AM 46.0°F7.8°C 41.4°F5.2°C 84% 1.0 mph W1.6 kmh W 1.2 mph1.9 kmh 30.16 in1021.3 mb 0.00 in0.0 mm 0.00 in0.0 mm 0.00 in0.0 mm
03:47 AM 46.0°F7.8°C 41.4°F5.2°C 84% 1.0 mph W1.6 kmh W 1.2 mph1.9 kmh 30.16 in1021.3 mb 0.00 in0.0 mm 0.00 in0.0 mm 0.00 in0.0 mm
03:42 AM 46.0°F7.8°C 41.4°F5.2°C 84% Calm Calm 1.2 mph1.9 kmh 30.16 in1021.3 mb 0.00 in0.0 mm 0.00 in0.0 mm 0.00 in0.0 mm
03:37 AM 46.0°F7.8°C 41.4°F5.2°C 84% Calm Calm 1.2 mph1.9 kmh 30.16 in1021.3 mb 0.00 in0.0 mm 0.00 in0.0 mm 0.00 in0.0 mm
03:32 AM 46.0°F7.8°C 41.4°F5.2°C 84% Calm Calm 1.2 mph1.9 kmh 30.16 in1021.3 mb 0.00 in0.0 mm 0.00 in0.0 mm 0.00 in0.0 mm
03:27 AM 46.1°F7.8°C 41.5°F5.3°C 84% Calm Calm -- 30.16 in1021.3 mb 0.00 in0.0 mm 0.00 in0.0 mm 0.00 in0.0 mm
03:22 AM 46.1°F7.8°C 41.2°F5.1°C 83% Calm Calm -- 30.16 in1021.3 mb 0.00 in0.0 mm 0.00 in0.0 mm 0.00 in0.0 mm
03:17 AM 46.2°F7.9°C 41.3°F5.2°C 83% Calm Calm 1.2 mph1.9 kmh 30.16 in1021.3 mb 0.00 in0.0 mm 0.00 in0.0 mm 0.00 in0.0 mm
03:12 AM 46.3°F7.9°C 41.1°F5.1°C 82% Calm Calm -- 30.16 in1021.3 mb 0.00 in0.0 mm 0.00 in0.0 mm 0.00 in0.0 mm
03:07 AM 46.3°F7.9°C 41.1°F5.1°C 82% Calm Calm -- 30.16 in1021.3 mb 0.00 in0.0 mm 0.00 in0.0 mm 0.00 in0.0 mm
03:02 AM 46.4°F8.0°C 41.2°F5.1°C 82% 1.0 mph W1.6 kmh W 2.4 mph3.9 kmh 30.16 in1021.3 mb 0.00 in0.0 mm 0.00 in0.0 mm 0.00 in0.0 mm
02:57 AM 46.4°F8.0°C 41.2°F5.1°C 82% Calm Calm 2.4 mph3.9 kmh 30.16 in1021.3 mb 0.00 in0.0 mm 0.00 in0.0 mm 0.00 in0.0 mm
02:52 AM 46.4°F8.0°C 40.9°F4.9°C 81% 1.0 mph W1.6 kmh W 2.4 mph3.9 kmh 30.16 in1021.3 mb 0.00 in0.0 mm 0.00 in0.0 mm 0.00 in0.0 mm
02:47 AM 46.5°F8.1°C 41.3°F5.2°C 82% 1.0 mph W1.6 kmh W 2.4 mph3.9 kmh 30.15 in1021.0 mb 0.00 in0.0 mm 0.00 in0.0 mm 0.00 in0.0 mm
02:42 AM 46.7°F8.2°C 41.2°F5.1°C 81% Calm Calm 1.2 mph1.9 kmh 30.16 in1021.3 mb 0.00 in0.0 mm 0.00 in0.0 mm 0.00 in0.0 mm
02:37 AM 46.6°F8.1°C 41.1°F5.1°C 81% Calm Calm 1.2 mph1.9 kmh 30.16 in1021.3 mb 0.00 in0.0 mm 0.00 in0.0 mm 0.00 in0.0 mm
02:32 AM 46.6°F8.1°C 41.1°F5.1°C 81% 1.0 mph W1.6 kmh W 1.2 mph1.9 kmh 30.15 in1021.0 mb 0.00 in0.0 mm 0.00 in0.0 mm 0.00 in0.0 mm
02:27 AM 46.7°F8.2°C 41.2°F5.1°C 81% Calm Calm 1.2 mph1.9 kmh 30.15 in1021.0 mb 0.00 in0.0 mm 0.00 in0.0 mm 0.00 in0.0 mm
02:22 AM 46.7°F8.2°C 41.2°F5.1°C 81% 1.0 mph W1.6 kmh W 1.2 mph1.9 kmh 30.15 in1021.0 mb 0.00 in0.0 mm 0.00 in0.0 mm 0.00 in0.0 mm
02:17 AM 46.7°F8.2°C 40.9°F4.9°C 80% Calm Calm 1.2 mph1.9 kmh 30.15 in1021.0 mb 0.00 in0.0 mm 0.00 in0.0 mm 0.00 in0.0 mm
02:12 AM 46.7°F8.2°C 41.2°F5.1°C 81% 1.0 mph W1.6 kmh W 1.2 mph1.9 kmh 30.15 in1021.0 mb 0.00 in0.0 mm 0.00 in0.0 mm 0.00 in0.0 mm
02:07 AM 46.6°F8.1°C 41.1°F5.1°C 81% 1.0 mph W1.6 kmh W 1.2 mph1.9 kmh 30.15 in1021.0 mb 0.00 in0.0 mm 0.00 in0.0 mm 0.00 in0.0 mm
02:02 AM 46.5°F8.1°C 41.0°F5.0°C 81% 1.0 mph W1.6 kmh W 1.2 mph1.9 kmh 30.15 in1021.0 mb 0.00 in0.0 mm 0.00 in0.0 mm 0.00 in0.0 mm
01:57 AM 46.4°F8.0°C 40.9°F4.9°C 81% Calm Calm 1.2 mph1.9 kmh 30.16 in1021.3 mb 0.00 in0.0 mm 0.00 in0.0 mm 0.00 in0.0 mm
01:52 AM 46.4°F8.0°C 40.9°F4.9°C 81% Calm Calm 2.4 mph3.9 kmh 30.16 in1021.3 mb 0.00 in0.0 mm 0.00 in0.0 mm 0.00 in0.0 mm
01:47 AM 46.5°F8.1°C 41.0°F5.0°C 81% 1.0 mph W1.6 kmh W 2.4 mph3.9 kmh 30.16 in1021.3 mb 0.00 in0.0 mm 0.00 in0.0 mm 0.00 in0.0 mm
01:42 AM 46.7°F8.2°C 41.2°F5.1°C 81% Calm Calm 2.4 mph3.9 kmh 30.15 in1021.0 mb 0.00 in0.0 mm 0.00 in0.0 mm 0.00 in0.0 mm
01:37 AM 46.8°F8.2°C 41.3°F5.2°C 81% 1.0 mph W1.6 kmh W 2.4 mph3.9 kmh 30.15 in1021.0 mb 0.00 in0.0 mm 0.00 in0.0 mm 0.00 in0.0 mm
01:32 AM 46.8°F8.2°C 41.3°F5.2°C 81% Calm Calm 1.2 mph1.9 kmh 30.16 in1021.3 mb 0.00 in0.0 mm 0.00 in0.0 mm 0.00 in0.0 mm
01:27 AM 46.8°F8.2°C 41.0°F5.0°C 80% 1.0 mph W1.6 kmh W 1.2 mph1.9 kmh 30.16 in1021.3 mb 0.00 in0.0 mm 0.00 in0.0 mm 0.00 in0.0 mm
01:22 AM 46.8°F8.2°C 40.6°F4.8°C 79% Calm Calm 2.4 mph3.9 kmh 30.15 in1021.0 mb 0.00 in0.0 mm 0.00 in0.0 mm 0.00 in0.0 mm
01:17 AM 46.9°F8.3°C 41.1°F5.1°C 80% Calm Calm 2.4 mph3.9 kmh 30.16 in1021.3 mb 0.00 in0.0 mm 0.00 in0.0 mm 0.00 in0.0 mm
01:12 AM 46.9°F8.3°C 41.1°F5.1°C 80% Calm Calm 2.4 mph3.9 kmh 30.15 in1021.0 mb 0.00 in0.0 mm 0.00 in0.0 mm 0.00 in0.0 mm
01:07 AM 47.0°F8.3°C 41.2°F5.1°C 80% 1.0 mph W1.6 kmh W 2.4 mph3.9 kmh 30.16 in1021.3 mb 0.00 in0.0 mm 0.00 in0.0 mm 0.00 in0.0 mm
01:02 AM 47.0°F8.3°C 41.2°F5.1°C 80% 1.0 mph W1.6 kmh W 1.2 mph1.9 kmh 30.15 in1021.0 mb 0.00 in0.0 mm 0.00 in0.0 mm 0.00 in0.0 mm
12:57 AM 47.0°F8.3°C 40.8°F4.9°C 79% Calm Calm 1.2 mph1.9 kmh 30.16 in1021.3 mb 0.00 in0.0 mm 0.00 in0.0 mm 0.00 in0.0 mm
12:52 AM 47.1°F8.4°C 40.9°F4.9°C 79% 1.0 mph W1.6 kmh W 1.2 mph1.9 kmh 30.16 in1021.3 mb 0.00 in0.0 mm 0.00 in0.0 mm 0.00 in0.0 mm
12:47 AM 47.1°F8.4°C 40.6°F4.8°C 78% Calm Calm 2.4 mph3.9 kmh 30.16 in1021.3 mb 0.00 in0.0 mm 0.00 in0.0 mm 0.00 in0.0 mm
12:42 AM 47.2°F8.4°C 41.0°F5.0°C 79% Calm Calm 2.4 mph3.9 kmh 30.16 in1021.3 mb 0.00 in0.0 mm 0.00 in0.0 mm 0.00 in0.0 mm
12:37 AM 47.3°F8.5°C 41.4°F5.2°C 80% 1.0 mph W1.6 kmh W 2.4 mph3.9 kmh 30.17 in1021.7 mb 0.00 in0.0 mm 0.00 in0.0 mm 0.00 in0.0 mm
12:32 AM 47.3°F8.5°C 41.1°F5.1°C 79% 1.0 mph W1.6 kmh W 2.4 mph3.9 kmh 30.17 in1021.7 mb 0.00 in0.0 mm 0.00 in0.0 mm 0.00 in0.0 mm
12:27 AM 47.4°F8.6°C 41.2°F5.1°C 79% Calm Calm 1.2 mph1.9 kmh 30.16 in1021.3 mb 0.00 in0.0 mm 0.00 in0.0 mm 0.00 in0.0 mm
12:22 AM 47.5°F8.6°C 41.0°F5.0°C 78% 1.0 mph W1.6 kmh W 2.4 mph3.9 kmh 30.16 in1021.3 mb 0.00 in0.0 mm 0.00 in0.0 mm 0.00 in0.0 mm
12:17 AM 47.7°F8.7°C 41.2°F5.1°C 78% 1.0 mph W1.6 kmh W 2.4 mph3.9 kmh 30.16 in1021.3 mb 0.00 in0.0 mm 0.00 in0.0 mm 0.00 in0.0 mm
12:12 AM 47.9°F8.8°C 41.0°F5.0°C 77% Calm Calm 2.4 mph3.9 kmh 30.16 in1021.3 mb 0.00 in0.0 mm 0.00 in0.0 mm 0.00 in0.0 mm
12:07 AM 48.2°F9.0°C 41.0°F5.0°C 76% 1.0 mph W1.6 kmh W 2.4 mph3.9 kmh 30.17 in1021.7 mb 0.00 in0.0 mm 0.00 in0.0 mm 0.00 in0.0 mm
12:02 AM 48.5°F9.2°C 41.3°F5.2°C 76% Calm Calm 1.2 mph1.9 kmh 30.18 in1022.0 mb 0.00 in0.0 mm 0.00 in0.0 mm 0.00 in0.0 mm